Time;durP1;ratioP1;P1;durP2;ratioP2;P2;SDS_P1;SDS_P2;PMS_P1;PMS_P2;Temp;Humidity;BMP_temperature;BMP_pressure;BME280_temperature;BME280_humidity;BME280_pressure;Samples;Min_cycle;Max_cycle;Signal;HPM_P1;HPM_P2
2021/09/16 00:01:42;;;;;;;11.70;5.15;;;;;;;11.07;100.00;101595.56;5199696;28;20031;-71
2021/09/16 00:04:13;;;;;;;14.77;5.82;;;;;;;11.05;100.00;101602.94;5199862;28;20025;-71
2021/09/16 00:06:43;;;;;;;20.35;6.15;;;;;;;11.04;100.00;101601.22;5199087;28;20033;-72
2021/09/16 00:09:14;;;;;;;11.10;5.25;;;;;;;11.04;100.00;101597.69;5199609;28;20017;-72
2021/09/16 00:11:44;;;;;;;17.55;6.15;;;;;;;11.02;100.00;101595.19;5199772;28;20022;-72
2021/09/16 00:14:15;;;;;;;16.88;5.55;;;;;;;11.01;100.00;101593.50;5199490;28;20415;-72
2021/09/16 00:16:45;;;;;;;17.25;6.85;;;;;;;10.99;100.00;101598.16;5199839;28;20017;-72
2021/09/16 00:19:16;;;;;;;18.08;5.85;;;;;;;10.98;100.00;101603.69;5199266;28;20340;-73
2021/09/16 00:21:46;;;;;;;14.43;6.22;;;;;;;10.95;100.00;101604.84;5199564;28;20029;-73
2021/09/16 00:24:17;;;;;;;18.20;5.78;;;;;;;10.93;100.00;101601.44;5199527;28;20037;-73
2021/09/16 00:26:47;;;;;;;15.60;6.75;;;;;;;10.93;100.00;101606.81;5199387;28;20475;-73
2021/09/16 00:29:18;;;;;;;16.75;5.93;;;;;;;10.90;100.00;101601.75;5199369;28;20036;-73
2021/09/16 00:31:48;;;;;;;19.13;6.57;;;;;;;10.88;100.00;101601.03;5199025;28;20426;-74
2021/09/16 00:34:19;;;;;;;19.02;6.70;;;;;;;10.87;100.00;101602.88;5199522;28;20112;-73
2021/09/16 00:36:49;;;;;;;16.35;5.72;;;;;;;10.86;100.00;101600.38;5199347;28;20025;-73
2021/09/16 00:39:20;;;;;;;13.70;6.32;;;;;;;10.83;100.00;101601.50;5199259;28;20135;-72
2021/09/16 00:41:50;;;;;;;12.95;5.82;;;;;;;10.80;100.00;101609.88;5198801;28;20120;-72
2021/09/16 00:44:21;;;;;;;14.68;5.88;;;;;;;10.77;100.00;101607.47;5199114;28;20068;-72
2021/09/16 00:46:51;;;;;;;20.10;5.68;;;;;;;10.75;100.00;101609.47;5198887;28;20052;-72
2021/09/16 00:49:22;;;;;;;21.95;6.68;;;;;;;10.77;100.00;101603.94;5199098;28;20029;-72
2021/09/16 00:51:52;;;;;;;15.15;6.65;;;;;;;10.80;100.00;101617.06;5198757;28;20132;-73
2021/09/16 00:54:24;;;;;;;18.70;6.93;;;;;;;10.81;100.00;101613.38;5199194;28;20029;-71
2021/09/16 00:56:55;;;;;;;16.55;6.05;;;;;;;10.80;100.00;101614.38;5199053;28;20037;-71
2021/09/16 00:59:26;;;;;;;19.50;6.60;;;;;;;10.79;100.00;101612.69;5198904;28;20022;-71
2021/09/16 01:01:57;;;;;;;14.95;5.88;;;;;;;10.77;100.00;101615.50;5199120;28;20065;-71
2021/09/16 01:04:29;;;;;;;15.32;5.70;;;;;;;10.76;100.00;101621.03;5199427;28;20056;-71
2021/09/16 01:06:59;;;;;;;18.13;6.15;;;;;;;10.74;100.00;101612.28;5202500;28;20029;-71
2021/09/16 01:09:32;;;;;;;18.67;6.70;;;;;;;10.72;100.00;101616.97;5203493;28;20226;-71
2021/09/16 01:12:03;;;;;;;13.25;6.40;;;;;;;10.68;100.00;101612.88;5203834;28;20032;-71
2021/09/16 01:14:34;;;;;;;14.82;5.43;;;;;;;10.63;100.00;101614.16;5203494;28;20031;-71
2021/09/16 01:17:05;;;;;;;18.23;5.75;;;;;;;10.61;100.00;101612.63;5203627;28;20506;-71
2021/09/16 01:19:35;;;;;;;14.25;5.95;;;;;;;10.56;100.00;101621.13;5203548;28;20311;-71
2021/09/16 01:22:12;;;;;;;13.27;5.85;;;;;;;10.52;100.00;101617.03;5202841;28;20437;-70
2021/09/16 01:24:43;;;;;;;18.10;5.97;;;;;;;10.46;100.00;101620.31;5203498;28;20086;-70
2021/09/16 01:27:13;;;;;;;13.45;5.38;;;;;;;10.43;100.00;101614.38;5202887;28;20029;-70
2021/09/16 01:29:44;;;;;;;14.13;5.30;;;;;;;10.38;100.00;101601.41;5185403;28;20430;-70
2021/09/16 01:32:15;;;;;;;14.00;5.75;;;;;;;10.41;100.00;101611.03;5202671;28;20064;-71
2021/09/16 01:34:45;;;;;;;13.05;5.38;;;;;;;10.45;100.00;101607.06;5203458;28;20017;-72
2021/09/16 01:37:17;;;;;;;15.25;6.00;;;;;;;10.42;100.00;101604.66;5202789;28;20491;-71
2021/09/16 01:39:48;;;;;;;13.00;5.35;;;;;;;10.39;100.00;101619.19;5203138;28;20040;-71
2021/09/16 01:42:19;;;;;;;15.43;5.55;;;;;;;10.35;100.00;101613.28;5202756;28;20445;-71
2021/09/16 01:44:50;;;;;;;12.90;5.63;;;;;;;10.31;100.00;101611.91;5202658;28;20482;-71
2021/09/16 01:47:21;;;;;;;19.13;6.88;;;;;;;10.28;100.00;101620.22;5202511;28;20030;-74
2021/09/16 01:49:53;;;;;;;17.38;5.85;;;;;;;10.27;100.00;101621.22;5202652;28;20116;-72
2021/09/16 01:52:23;;;;;;;17.75;7.00;;;;;;;10.26;100.00;101616.00;5202530;28;20443;-71
2021/09/16 01:54:54;;;;;;;18.42;6.40;;;;;;;10.25;100.00;101619.69;5202672;28;20297;-72
2021/09/16 01:57:24;;;;;;;20.70;6.13;;;;;;;10.21;100.00;101610.19;5202251;28;20421;-72
2021/09/16 01:59:55;;;;;;;20.55;6.95;;;;;;;10.18;100.00;101619.38;5202568;28;20106;-72
2021/09/16 02:02:26;;;;;;;15.40;7.30;;;;;;;10.16;100.00;101618.69;5202775;28;20029;-71
2021/09/16 02:05:09;;;;;;;16.55;6.70;;;;;;;10.13;100.00;101625.16;5202618;28;20036;-72
2021/09/16 02:07:39;;;;;;;19.20;6.93;;;;;;;10.11;100.00;101621.78;5201655;28;20034;-72
2021/09/16 02:10:10;;;;;;;20.33;7.18;;;;;;;10.10;100.00;101622.78;5202467;28;20017;-72
2021/09/16 02:12:41;;;;;;;16.55;6.57;;;;;;;10.08;100.00;101626.59;5202196;28;20385;-71
2021/09/16 02:15:11;;;;;;;10.88;5.88;;;;;;;10.03;100.00;101632.38;5202667;28;20125;-72
2021/09/16 02:17:42;;;;;;;16.75;6.15;;;;;;;10.00;100.00;101630.00;5202080;28;20014;-71
2021/09/16 02:20:13;;;;;;;14.35;6.30;;;;;;;9.96;100.00;101633.09;5202263;28;20103;-72
2021/09/16 02:22:43;;;;;;;17.95;7.18;;;;;;;9.93;100.00;101633.38;5201887;28;20025;-72
2021/09/16 02:25:13;;;;;;;20.77;9.43;;;;;;;9.93;100.00;101644.09;5202553;28;20422;-72
2021/09/16 02:27:44;;;;;;;24.80;8.70;;;;;;;9.96;100.00;101633.09;5201658;28;20024;-72
2021/09/16 02:30:14;;;;;;;16.75;8.00;;;;;;;10.00;100.00;101635.34;5200664;28;20041;-71
2021/09/16 02:32:45;;;;;;;28.02;8.82;;;;;;;10.04;100.00;101641.25;5201004;28;20022;-71
2021/09/16 02:35:16;;;;;;;25.88;10.13;;;;;;;10.10;100.00;101638.03;5201769;28;20048;-72
2021/09/16 02:37:46;;;;;;;27.42;10.65;;;;;;;10.15;100.00;101640.28;5201997;28;20022;-72
2021/09/16 02:40:17;;;;;;;35.45;13.95;;;;;;;10.24;100.00;101647.47;5201486;28;20487;-72
2021/09/16 02:42:47;;;;;;;37.60;13.30;;;;;;;10.32;100.00;101642.22;5201982;28;20033;-73
2021/09/16 02:45:18;;;;;;;35.75;13.75;;;;;;;10.40;100.00;101631.63;5201385;28;20127;-73
2021/09/16 02:47:50;;;;;;;33.17;13.98;;;;;;;10.48;100.00;101645.16;5201829;28;20029;-73
2021/09/16 02:50:20;;;;;;;31.50;12.25;;;;;;;10.52;100.00;101646.53;5201239;28;20026;-72
2021/09/16 02:52:51;;;;;;;34.72;13.27;;;;;;;10.56;100.00;101642.59;5202047;28;20037;-73
2021/09/16 02:55:21;;;;;;;32.85;12.90;;;;;;;10.61;100.00;101648.34;5201626;28;20497;-73
2021/09/16 02:57:52;;;;;;;34.65;13.82;;;;;;;10.63;100.00;101650.88;5201071;28;20025;-73
2021/09/16 03:00:22;;;;;;;29.33;12.27;;;;;;;10.66;100.00;101655.13;5201307;28;20030;-73
2021/09/16 03:02:52;;;;;;;32.50;12.20;;;;;;;10.69;100.00;101657.50;5201422;28;20072;-73
2021/09/16 03:05:23;;;;;;;39.85;13.27;;;;;;;10.74;100.00;101660.59;5201023;28;20032;-72
2021/09/16 03:07:53;;;;;;;35.67;13.18;;;;;;;10.80;100.00;101652.81;5201342;28;20112;-72
2021/09/16 03:10:24;;;;;;;37.97;14.70;;;;;;;10.87;100.00;101650.38;5200636;28;20759;-71
2021/09/16 03:12:56;;;;;;;35.95;13.75;;;;;;;10.91;100.00;101653.59;5201406;28;20063;-71
2021/09/16 03:15:26;;;;;;;31.90;12.80;;;;;;;10.95;100.00;101655.84;5201220;28;20026;-71
2021/09/16 03:17:57;;;;;;;33.72;13.85;;;;;;;10.95;100.00;101655.00;5201347;28;20018;-72
2021/09/16 03:20:27;;;;;;;33.20;12.75;;;;;;;10.95;100.00;101657.69;5200706;28;20064;-71
2021/09/16 03:22:57;;;;;;;37.55;14.00;;;;;;;10.93;100.00;101655.13;5200945;28;20044;-72
2021/09/16 03:25:28;;;;;;;31.67;11.13;;;;;;;10.93;100.00;101655.13;5200596;28;20365;-74
2021/09/16 03:27:58;;;;;;;37.83;12.38;;;;;;;10.95;100.00;101661.22;5200440;28;20407;-72
2021/09/16 03:30:29;;;;;;;38.03;12.93;;;;;;;11.00;100.00;101667.00;5200300;28;20056;-72
2021/09/16 03:32:59;;;;;;;33.47;12.20;;;;;;;11.05;100.00;101664.69;5200620;28;20029;-72
2021/09/16 03:35:30;;;;;;;36.88;13.13;;;;;;;11.12;100.00;101663.09;5182698;28;20104;-73
2021/09/16 03:38:00;;;;;;;31.20;12.13;;;;;;;11.19;100.00;101663.31;5201267;28;20031;-73
2021/09/16 03:40:31;;;;;;;39.17;11.82;;;;;;;11.27;100.00;101667.97;5200164;28;20482;-72
2021/09/16 03:43:01;;;;;;;32.72;11.95;;;;;;;11.33;100.00;101670.03;5200697;28;20104;-73
2021/09/16 03:45:32;;;;;;;34.63;11.32;;;;;;;11.39;100.00;101669.41;5200149;28;20045;-74
2021/09/16 03:48:03;;;;;;;26.50;10.50;;;;;;;11.43;100.00;101670.81;5200452;28;20030;-73
2021/09/16 03:50:36;;;;;;;32.50;11.00;;;;;;;11.45;100.00;101663.47;5199790;28;20021;-74
2021/09/16 03:53:06;;;;;;;26.23;10.85;;;;;;;11.48;100.00;101671.19;5200426;28;20021;-73
2021/09/16 03:55:37;;;;;;;29.67;10.02;;;;;;;11.53;100.00;101671.59;5200788;28;20415;-74
2021/09/16 03:58:08;;;;;;;26.10;9.43;;;;;;;11.57;100.00;101666.78;5200169;28;20372;-73
2021/09/16 04:00:38;;;;;;;26.48;10.43;;;;;;;11.61;100.00;101674.38;5200060;28;20032;-73
2021/09/16 04:03:10;;;;;;;26.65;9.85;;;;;;;11.64;100.00;101674.06;5200196;28;20033;-72
2021/09/16 04:05:40;;;;;;;28.50;9.52;;;;;;;11.65;100.00;101667.69;5200251;28;20025;-73
2021/09/16 04:08:11;;;;;;;23.00;8.43;;;;;;;11.68;100.00;101672.75;5200603;28;20700;-75
2021/09/16 04:10:41;;;;;;;21.73;8.30;;;;;;;11.71;100.00;101666.25;5199693;28;20091;-73
2021/09/16 04:13:12;;;;;;;22.38;7.70;;;;;;;11.75;100.00;101672.16;5200328;28;20049;-73
2021/09/16 04:15:42;;;;;;;25.17;8.52;;;;;;;11.77;100.00;101670.16;5199606;28;20069;-74
2021/09/16 04:18:13;;;;;;;21.67;7.68;;;;;;;11.78;100.00;101669.16;5200148;28;20056;-73
2021/09/16 04:20:43;;;;;;;20.13;7.10;;;;;;;11.82;100.00;101665.19;5199481;28;20445;-74
2021/09/16 04:23:14;;;;;;;28.20;7.60;;;;;;;11.84;100.00;101664.03;5199288;28;20037;-74
2021/09/16 04:25:45;;;;;;;21.63;8.00;;;;;;;11.87;100.00;101665.56;5199422;28;20017;-74
2021/09/16 04:28:15;;;;;;;23.38;7.65;;;;;;;11.89;100.00;101669.78;5199813;28;20518;-74
2021/09/16 04:30:46;;;;;;;18.45;7.60;;;;;;;11.91;100.00;101662.41;5199518;28;20018;-74
2021/09/16 04:33:16;;;;;;;20.15;7.03;;;;;;;11.95;100.00;101662.09;5200268;28;20083;-74
2021/09/16 04:35:47;;;;;;;21.80;7.30;;;;;;;11.98;100.00;101661.78;5198884;28;20025;-73
2021/09/16 04:38:18;;;;;;;16.67;6.93;;;;;;;11.98;100.00;101668.00;5199785;28;20030;-74
2021/09/16 04:40:48;;;;;;;19.15;7.45;;;;;;;12.01;100.00;101669.56;5198626;28;20025;-73
2021/09/16 04:43:19;;;;;;;19.90;6.72;;;;;;;12.04;100.00;101666.53;5199420;28;20505;-74
2021/09/16 04:45:49;;;;;;;16.10;6.75;;;;;;;12.07;100.00;101667.09;5199182;28;20109;-74
2021/09/16 04:48:20;;;;;;;24.95;7.07;;;;;;;12.08;100.00;101666.06;5199332;28;20029;-75
2021/09/16 04:50:50;;;;;;;18.00;6.88;;;;;;;12.10;100.00;101666.78;5198848;28;20049;-75
2021/09/16 04:53:21;;;;;;;17.88;6.70;;;;;;;12.13;100.00;101671.00;5199450;28;20080;-72
2021/09/16 04:55:51;;;;;;;18.05;6.38;;;;;;;12.16;100.00;101666.16;5199266;28;20022;-73
2021/09/16 04:58:22;;;;;;;15.40;6.13;;;;;;;12.18;100.00;101674.91;5199671;28;20083;-74
2021/09/16 05:00:52;;;;;;;19.17;6.18;;;;;;;12.22;100.00;101671.91;5198773;28;20479;-76
2021/09/16 05:03:22;;;;;;;19.13;5.97;;;;;;;12.24;100.00;101677.97;5199372;28;20399;-75
2021/09/16 05:05:53;;;;;;;19.58;6.07;;;;;;;12.25;100.00;101671.56;5199188;28;20483;-74
2021/09/16 05:08:23;;;;;;;18.52;6.20;;;;;;;12.27;100.00;101674.97;5199364;28;20026;-73
2021/09/16 05:10:54;;;;;;;19.98;6.40;;;;;;;12.28;100.00;101677.50;5198664;28;20029;-75
2021/09/16 05:13:24;;;;;;;16.48;7.55;;;;;;;12.31;100.00;101679.88;5199457;28;20043;-75
2021/09/16 05:15:55;;;;;;;27.90;7.72;;;;;;;12.32;100.00;101676.19;5198711;28;20072;-73
2021/09/16 05:18:25;;;;;;;19.85;8.30;;;;;;;12.34;100.00;101684.09;5199344;28;20442;-74
2021/09/16 05:20:56;;;;;;;31.38;8.93;;;;;;;12.36;100.00;101684.78;5198669;28;20430;-73
2021/09/16 05:23:26;;;;;;;19.35;7.57;;;;;;;12.39;100.00;101676.38;5198781;28;20116;-74
2021/09/16 05:25:56;;;;;;;21.05;7.55;;;;;;;12.43;100.00;101677.75;5198873;28;20030;-75
2021/09/16 05:28:27;;;;;;;17.33;7.35;;;;;;;12.47;100.00;101689.06;5199575;28;20036;-73
2021/09/16 05:30:57;;;;;;;19.63;6.85;;;;;;;12.50;100.00;101688.72;5198776;28;20260;-73
2021/09/16 05:33:28;;;;;;;16.67;7.00;;;;;;;12.52;100.00;101690.28;5199188;28;20033;-73
2021/09/16 05:35:58;;;;;;;18.00;6.70;;;;;;;12.54;100.00;101693.63;5198615;28;20040;-74
2021/09/16 05:38:29;;;;;;;19.48;7.10;;;;;;;12.55;100.00;101692.66;5214614;28;20029;-74
2021/09/16 05:40:59;;;;;;;15.60;7.43;;;;;;;12.58;100.00;101694.19;5198654;28;20433;-73
2021/09/16 05:43:31;;;;;;;19.20;7.55;;;;;;;12.61;100.00;101701.94;5199352;28;20475;-73
2021/09/16 05:46:01;;;;;;;16.50;7.15;;;;;;;12.62;100.00;101707.16;5214047;28;20064;-73
2021/09/16 05:48:32;;;;;;;20.08;7.78;;;;;;;12.66;100.00;101703.16;5198679;28;20609;-72
2021/09/16 05:51:02;;;;;;;18.90;7.22;;;;;;;12.69;100.00;101712.75;5198636;28;20491;-74
2021/09/16 05:53:33;;;;;;;20.17;7.93;;;;;;;12.72;100.00;101714.28;5202773;28;20033;-73
2021/09/16 05:56:04;;;;;;;19.98;7.40;;;;;;;12.75;100.00;101708.56;5203166;28;20355;-75
2021/09/16 05:58:34;;;;;;;17.88;7.68;;;;;;;12.80;100.00;101707.13;5202683;28;20037;-73
2021/09/16 06:01:05;;;;;;;19.42;7.18;;;;;;;12.81;100.00;101708.78;5202195;28;20494;-74
2021/09/16 06:03:36;;;;;;;20.90;7.47;;;;;;;12.86;100.00;101701.06;5202431;28;20424;-72
2021/09/16 06:06:06;;;;;;;19.70;8.52;;;;;;;12.89;100.00;101710.66;5202309;28;20034;-73
2021/09/16 06:08:37;;;;;;;20.38;8.10;;;;;;;12.91;100.00;101712.22;5202687;28;20053;-72
2021/09/16 06:11:07;;;;;;;19.58;8.23;;;;;;;12.93;100.00;101715.56;5201917;28;20538;-74
2021/09/16 06:13:38;;;;;;;18.95;7.10;;;;;;;12.99;100.00;101716.78;5202603;28;20033;-72
2021/09/16 06:16:08;;;;;;;21.50;8.15;;;;;;;13.04;100.00;101721.69;5217382;28;20018;-72
2021/09/16 06:18:39;;;;;;;16.88;8.13;;;;;;;13.11;100.00;101722.75;5202324;28;20284;-72
2021/09/16 06:21:09;;;;;;;21.67;7.97;;;;;;;13.14;100.00;101723.25;5201837;28;20019;-73
2021/09/16 06:23:40;;;;;;;23.38;7.97;;;;;;;13.20;100.00;101724.44;5201920;28;20087;-74
2021/09/16 06:26:10;;;;;;;31.42;8.32;;;;;;;13.25;100.00;101721.31;5198109;28;20093;-73
2021/09/16 06:28:41;;;;;;;19.08;9.15;;;;;;;13.25;100.00;101722.13;5182468;28;20025;-73
2021/09/16 06:31:13;;;;;;;17.85;8.85;;;;;;;13.26;100.00;101723.00;5200953;28;20029;-73
2021/09/16 06:33:43;;;;;;;21.73;8.15;;;;;;;13.23;100.00;101720.63;5201132;28;20025;-73
2021/09/16 06:36:14;;;;;;;22.40;8.93;;;;;;;13.26;100.00;101725.72;5199780;28;20029;-73
2021/09/16 06:38:45;;;;;;;20.23;8.80;;;;;;;13.37;100.00;101726.25;5200677;28;20021;-72
2021/09/16 06:41:15;;;;;;;19.02;7.97;;;;;;;13.77;100.00;101730.06;5200707;28;20025;-72
2021/09/16 06:43:46;;;;;;;18.80;8.52;;;;;;;14.29;100.00;101731.63;5200194;28;20301;-73
2021/09/16 06:46:16;;;;;;;21.05;8.82;;;;;;;14.58;100.00;101729.25;5200964;28;20095;-72
2021/09/16 06:48:47;;;;;;;19.17;8.25;;;;;;;14.78;100.00;101724.34;5200298;28;20022;-73
2021/09/16 06:51:17;;;;;;;25.17;7.35;;;;;;;14.75;100.00;101730.06;5201036;28;20038;-74
2021/09/16 06:53:48;;;;;;;23.50;9.13;;;;;;;14.70;100.00;101722.47;5200351;28;20191;-73
2021/09/16 06:56:18;;;;;;;18.20;9.30;;;;;;;14.75;100.00;101730.91;5200418;28;20049;-72
2021/09/16 06:58:49;;;;;;;18.48;9.07;;;;;;;14.93;100.00;101733.41;5200124;28;20025;-73
2021/09/16 07:01:19;;;;;;;22.30;8.45;;;;;;;14.97;100.00;101733.91;5200271;28;20118;-73
2021/09/16 07:03:52;;;;;;;19.23;8.88;;;;;;;14.83;100.00;101738.16;5199182;28;20113;-73
2021/09/16 07:06:23;;;;;;;21.73;9.75;;;;;;;14.63;100.00;101734.16;5200299;28;20044;-72
2021/09/16 07:08:54;;;;;;;21.15;10.30;;;;;;;14.46;100.00;101730.63;5201130;28;20061;-72
2021/09/16 07:11:24;;;;;;;23.42;9.82;;;;;;;14.36;100.00;101744.28;5201060;28;20495;-74
2021/09/16 07:13:55;;;;;;;22.98;11.50;;;;;;;14.39;100.00;101735.81;5199387;28;20022;-73
2021/09/16 07:16:25;;;;;;;29.58;10.48;;;;;;;14.33;100.00;101746.47;5200697;28;20017;-74
2021/09/16 07:18:56;;;;;;;26.67;11.80;;;;;;;14.28;100.00;101738.03;5200650;28;20033;-73
2021/09/16 07:21:26;;;;;;;23.05;10.93;;;;;;;14.27;100.00;101739.91;5182483;28;20037;-74
2021/09/16 07:23:57;;;;;;;23.73;12.00;;;;;;;14.31;100.00;101746.66;5199567;28;20379;-74
2021/09/16 07:26:28;;;;;;;29.00;11.98;;;;;;;14.43;100.00;101745.28;5199350;28;20034;-72
2021/09/16 07:28:59;;;;;;;25.35;11.95;;;;;;;14.79;100.00;101739.53;5199967;28;20033;-72
2021/09/16 07:31:30;;;;;;;29.50;13.38;;;;;;;15.70;100.00;101746.28;5182329;28;20034;-73
2021/09/16 07:34:01;;;;;;;26.05;12.38;;;;;;;16.70;100.00;101744.31;5181941;28;20033;-72
2021/09/16 07:36:31;;;;;;;22.50;10.90;;;;;;;17.63;100.00;101742.06;5199711;28;20075;-73
2021/09/16 07:39:02;;;;;;;23.13;11.45;;;;;;;18.22;100.00;101748.13;5198954;28;20033;-72
2021/09/16 07:41:33;;;;;;;24.38;11.38;;;;;;;19.07;100.00;101754.44;5199496;28;20025;-74
2021/09/16 07:44:04;;;;;;;24.00;10.82;;;;;;;19.48;100.00;101757.16;5198387;28;20339;-72
2021/09/16 07:46:34;;;;;;;17.80;10.25;;;;;;;20.00;100.00;101757.56;5199842;28;20049;-73
2021/09/16 07:49:05;;;;;;;19.92;11.18;;;;;;;20.82;100.00;101759.06;5199509;28;20482;-72
2021/09/16 07:51:35;;;;;;;25.88;12.02;;;;;;;20.65;100.00;101755.97;5198996;28;20497;-74
2021/09/16 07:54:06;;;;;;;20.45;10.93;;;;;;;20.56;100.00;101757.22;5199315;28;20108;-73
2021/09/16 07:56:39;;;;;;;21.58;12.05;;;;;;;20.15;100.00;101769.94;5199318;28;20022;-73
2021/09/16 07:59:09;;;;;;;28.20;13.27;;;;;;;19.46;100.00;101763.84;5198953;28;20036;-73
2021/09/16 08:01:40;;;;;;;28.25;12.45;;;;;;;19.02;100.00;101765.06;5181447;28;20445;-73
2021/09/16 08:04:10;;;;;;;30.58;13.38;;;;;;;18.74;100.00;101768.66;5198698;28;20029;-73
2021/09/16 08:06:41;;;;;;;26.27;13.07;;;;;;;19.54;100.00;101763.69;5198825;28;20079;-73
2021/09/16 08:09:11;;;;;;;23.42;12.05;;;;;;;19.88;100.00;101768.19;5198900;28;20043;-73
2021/09/16 08:11:42;;;;;;;24.50;14.40;;;;;;;19.95;100.00;101768.25;5199094;28;20025;-73
2021/09/16 08:14:12;;;;;;;27.67;14.13;;;;;;;20.19;100.00;101773.09;5198723;28;20021;-73
2021/09/16 08:16:43;;;;;;;25.17;13.40;;;;;;;20.97;100.00;101762.41;5198936;28;20033;-73
2021/09/16 08:19:13;;;;;;;28.30;11.85;;;;;;;21.97;100.00;101765.59;5180782;28;20420;-74
2021/09/16 08:21:44;;;;;;;26.05;14.52;;;;;;;21.61;100.00;101767.06;5198811;28;20037;-73
2021/09/16 08:24:15;;;;;;;33.20;14.10;;;;;;;21.48;100.00;101769.84;5198504;28;20025;-74
2021/09/16 08:26:45;;;;;;;26.65;13.90;;;;;;;21.53;100.00;101774.66;5198475;28;20072;-73
2021/09/16 08:29:15;;;;;;;23.73;12.80;;;;;;;22.29;100.00;101782.91;5198367;28;20025;-74
2021/09/16 08:31:46;;;;;;;22.58;12.25;;;;;;;22.48;100.00;101786.50;5198786;28;20449;-73
2021/09/16 08:34:16;;;;;;;21.80;11.45;;;;;;;22.00;100.00;101789.78;5198250;28;20021;-74
2021/09/16 08:36:47;;;;;;;19.20;11.38;;;;;;;22.03;100.00;101780.28;5198763;28;20025;-73
2021/09/16 08:39:17;;;;;;;19.92;10.68;;;;;;;22.68;100.00;101789.06;5200283;28;20356;-75
2021/09/16 08:41:48;;;;;;;19.20;11.25;;;;;;;22.86;100.00;101783.66;5180626;28;20033;-73
2021/09/16 08:44:19;;;;;;;19.98;10.45;;;;;;;23.18;100.00;101789.03;5198311;28;20017;-74
2021/09/16 08:46:50;;;;;;;23.05;12.43;;;;;;;23.08;100.00;101781.34;5198318;28;20033;-73
2021/09/16 08:49:21;;;;;;;20.90;10.70;;;;;;;22.82;100.00;101779.69;5198251;28;20025;-74
2021/09/16 08:51:53;;;;;;;18.25;9.70;;;;;;;23.86;100.00;101780.66;5197809;28;20025;-74
2021/09/16 08:54:24;;;;;;;15.50;8.63;;;;;;;23.58;100.00;101780.38;5198173;28;20017;-74
2021/09/16 08:56:55;;;;;;;18.80;9.10;;;;;;;23.48;100.00;101789.13;5198744;28;20288;-75
2021/09/16 08:59:25;;;;;;;19.08;9.45;;;;;;;23.10;100.00;101792.09;5198284;28;20025;-73
2021/09/16 09:01:56;;;;;;;16.20;8.32;;;;;;;23.40;100.00;101787.53;5198107;28;20026;-73
2021/09/16 09:04:26;;;;;;;20.50;8.65;;;;;;;23.02;100.00;101781.44;5197513;28;20104;-75
2021/09/16 09:07:02;;;;;;;16.95;8.02;;;;;;;23.16;100.00;101769.28;5198497;28;20601;-74
2021/09/16 09:09:33;;;;;;;22.52;9.18;;;;;;;23.17;100.00;101768.22;5197621;28;20364;-75
2021/09/16 09:12:11;;;;;;;13.98;9.07;;;;;;;22.72;100.00;101779.38;5198301;28;20032;-74
2021/09/16 09:14:46;;;;;;;16.90;9.60;;;;;;;22.36;100.00;101780.09;5197645;28;20029;-75
2021/09/16 09:17:18;;;;;;;14.18;8.00;;;;;;;22.43;100.00;101787.19;5198006;28;20024;-74
2021/09/16 09:19:51;;;;;;;17.02;8.43;;;;;;;22.87;100.00;101790.81;5197490;28;20030;-73
2021/09/16 09:22:29;;;;;;;13.57;8.55;;;;;;;22.87;100.00;101790.81;5180054;28;20331;-75
2021/09/16 09:25:03;;;;;;;18.05;7.97;;;;;;;22.66;100.00;101788.47;5180562;28;20036;-74
2021/09/16 09:27:38;;;;;;;13.73;6.90;;;;;;;23.15;100.00;101790.34;5200728;28;20033;-74
2021/09/16 09:30:16;;;;;;;14.65;7.95;;;;;;;23.40;100.00;101787.53;5202243;28;20033;-74
2021/09/16 09:32:58;;;;;;;17.38;7.88;;;;;;;23.22;100.00;101791.09;5202327;28;20025;-73
2021/09/16 09:35:34;;;;;;;16.40;8.73;;;;;;;23.12;100.00;101795.44;5202993;28;20107;-74
2021/09/16 09:38:26;;;;;;;14.70;9.25;;;;;;;22.89;100.00;101790.59;5194290;28;20025;-74
2021/09/16 09:41:00;;;;;;;13.63;7.78;;;;;;;22.27;100.00;101795.09;5202641;28;20017;-75
2021/09/16 09:43:34;;;;;;;13.70;8.48;;;;;;;21.96;100.00;101792.09;5201254;28;20030;-72
2021/09/16 09:46:12;;;;;;;14.43;7.88;;;;;;;21.96;100.00;101792.09;5199007;28;20026;-74
2021/09/16 09:48:56;;;;;;;17.95;9.63;;;;;;;22.39;100.00;101793.31;5202677;28;20033;-74
2021/09/16 09:51:39;;;;;;;16.20;9.65;;;;;;;21.97;100.00;101788.31;5195538;28;20025;-74
2021/09/16 09:54:20;;;;;;;15.40;9.20;;;;;;;21.37;100.00;101785.00;5204640;28;20074;-73
2021/09/16 09:57:08;;;;;;;13.25;7.75;;;;;;;21.30;100.00;101788.78;5201825;28;20534;-73
2021/09/16 09:59:54;;;;;;;14.02;7.57;;;;;;;21.50;100.00;101791.47;5201297;28;20033;-73
2021/09/16 10:02:41;;;;;;;14.10;7.07;;;;;;;21.48;100.00;101793.56;5201385;28;20033;-73
2021/09/16 10:05:23;;;;;;;13.65;7.38;;;;;;;21.54;100.00;101781.81;5177850;28;20036;-74
2021/09/16 10:07:56;;;;;;;9.18;4.72;;;;;;;21.50;100.00;101786.03;5201464;28;20025;-73
2021/09/16 10:10:34;;;;;;;8.68;5.30;;;;;;;21.28;100.00;101786.25;5183458;28;20045;-73
2021/09/16 10:13:05;;;;;;;17.52;5.70;;;;;;;21.24;100.00;101782.31;5201111;28;20033;-75
2021/09/16 10:15:36;;;;;;;10.45;3.78;;;;;;;21.26;100.00;101782.06;5201689;28;20403;-73
2021/09/16 10:18:06;;;;;;;10.07;4.07;;;;;;;21.08;100.00;101782.72;5201229;28;20025;-74
2021/09/16 10:20:37;;;;;;;6.30;3.60;;;;;;;20.97;100.00;101788.84;5200726;28;20052;-73
2021/09/16 10:23:09;;;;;;;11.75;3.30;;;;;;;21.23;100.00;101780.59;5201080;28;20033;-74
2021/09/16 10:25:47;;;;;;;7.53;3.42;;;;;;;21.36;100.00;101786.06;5200953;28;20732;-73
2021/09/16 10:28:19;;;;;;;4.75;3.03;;;;;;;21.53;100.00;101780.13;5201287;28;20038;-74
2021/09/16 10:30:51;;;;;;;9.25;3.90;;;;;;;21.33;100.00;101781.03;5200463;28;20482;-74
2021/09/16 10:33:22;;;;;;;8.82;4.05;;;;;;;21.16;100.00;101774.34;5201552;28;20029;-75
2021/09/16 10:35:57;;;;;;;7.47;3.40;;;;;;;21.27;100.00;101779.13;5200616;28;20029;-75
2021/09/16 10:38:41;;;;;;;7.90;3.97;;;;;;;21.52;100.00;101775.72;5199344;28;20033;-74
2021/09/16 10:41:15;;;;;;;7.00;3.72;;;;;;;21.77;100.00;101773.91;5200651;28;20029;-74
2021/09/16 10:43:47;;;;;;;5.47;3.30;;;;;;;21.74;100.00;101782.56;5201282;28;20065;-73
2021/09/16 10:46:27;;;;;;;7.82;3.95;;;;;;;21.78;100.00;101774.75;5201343;28;20036;-74
2021/09/16 10:49:23;;;;;;;5.78;3.20;;;;;;;21.73;100.00;101770.78;5188617;28;20068;-73
2021/09/16 10:51:54;;;;;;;7.00;4.47;;;;;;;21.86;100.00;101764.41;5201583;28;20049;-73
2021/09/16 10:54:31;;;;;;;7.63;4.72;;;;;;;21.89;100.00;101771.34;5201366;28;20025;-73
2021/09/16 10:57:02;;;;;;;7.78;4.15;;;;;;;22.16;100.00;101761.94;5201184;28;20038;-75
2021/09/16 10:59:51;;;;;;;7.20;4.00;;;;;;;22.28;100.00;101766.69;5201143;28;20025;-74
2021/09/16 11:02:23;;;;;;;10.18;4.00;;;;;;;21.83;100.00;101773.03;5201696;28;20134;-74
2021/09/16 11:04:54;;;;;;;6.28;3.40;;;;;;;21.72;100.00;101765.53;5201298;28;20029;-74
2021/09/16 11:07:30;;;;;;;8.68;3.58;;;;;;;22.00;100.00;101764.34;5200605;28;20037;-75
2021/09/16 11:10:13;;;;;;;12.35;3.85;;;;;;;22.17;100.00;101765.50;5201216;28;20028;-75
2021/09/16 11:12:51;;;;;;;6.97;3.38;;;;;;;21.93;100.00;101764.38;5201177;28;20082;-73
2021/09/16 11:15:26;;;;;;;6.53;3.60;;;;;;;21.84;100.00;101763.81;5200978;28;20101;-75
2021/09/16 11:18:01;;;;;;;;;;;;;;;22.02;100.00;101756.75;5201299;28;20082;-74
2021/09/16 11:20:32;;;;;;;8.25;3.33;;;;;;;22.21;100.00;101766.75;5201032;28;20358;-73
2021/09/16 11:23:03;;;;;;;7.57;4.13;;;;;;;22.19;100.00;101753.31;5201274;28;20282;-74
2021/09/16 11:25:35;;;;;;;5.05;2.78;;;;;;;21.62;100.00;101757.81;5201164;28;20600;-73
2021/09/16 11:28:06;;;;;;;5.05;2.42;;;;;;;21.32;100.00;101764.88;5200893;28;20029;-73
2021/09/16 11:30:39;;;;;;;3.28;2.40;;;;;;;21.21;100.00;101769.91;5200395;28;20401;-74